Time;durP1;ratioP1;P1;durP2;ratioP2;P2;SDS_P1;SDS_P2;PMS_P1;PMS_P2;Temp;Humidity;BMP_temperature;BMP_pressure;BME280_temperature;BME280_humidity;BME280_pressure;Samples;Min_cycle;Max_cycle;Signal;HPM_P1;HPM_P2
2023/07/06 00:00:16;;;;;;;5.07;4.88;;;18.00;99.90;;;;;;5011857;28;20212;-68
2023/07/06 00:02:44;;;;;;;5.30;5.10;;;18.00;99.90;;;;;;5013645;28;20233;-69
2023/07/06 00:05:11;;;;;;;5.10;4.90;;;18.00;99.90;;;;;;5017351;28;20248;-67
2023/07/06 00:07:38;;;;;;;5.20;5.00;;;18.00;99.90;;;;;;5015538;28;20259;-65
2023/07/06 00:10:05;;;;;;;5.30;5.10;;;18.00;99.90;;;;;;5012898;28;20690;-68
2023/07/06 00:12:34;;;;;;;5.50;5.30;;;18.00;99.90;;;;;;5012878;28;20255;-65
2023/07/06 00:15:01;;;;;;;5.13;4.93;;;17.90;99.90;;;;;;5013017;28;20233;-69
2023/07/06 00:17:28;;;;;;;5.50;5.30;;;17.90;99.90;;;;;;5012297;28;20667;-66
2023/07/06 00:19:56;;;;;;;5.05;4.85;;;17.80;99.90;;;;;;5011602;28;20678;-67
2023/07/06 00:22:23;;;;;;;5.20;5.00;;;17.80;99.90;;;;;;5012163;28;20206;-67
2023/07/06 00:24:50;;;;;;;5.40;5.20;;;17.80;99.90;;;;;;5012455;28;20213;-67
2023/07/06 00:27:17;;;;;;;5.30;5.10;;;17.60;99.90;;;;;;5011073;28;20212;-67
2023/07/06 00:29:56;;;;;;;5.40;5.20;;;17.60;99.90;;;;;;5012414;28;20232;-68
2023/07/06 00:32:27;;;;;;;5.38;5.18;;;17.60;99.90;;;;;;5012241;28;20300;-66
2023/07/06 00:34:56;;;;;;;4.90;4.70;;;17.50;99.90;;;;;;5011519;28;20312;-67
2023/07/06 00:37:23;;;;;;;5.00;4.80;;;17.50;99.90;;;;;;5012244;28;20669;-67
2023/07/06 00:39:51;;;;;;;4.90;4.70;;;17.50;99.90;;;;;;5011963;28;20296;-67
2023/07/06 00:42:20;;;;;;;5.25;5.05;;;17.50;99.90;;;;;;5013174;28;20565;-67
2023/07/06 00:44:53;;;;;;;4.95;4.75;;;17.40;99.90;;;;;;5013997;28;20209;-67
2023/07/06 00:47:32;;;;;;;4.82;4.63;;;17.40;99.90;;;;;;5014001;28;20675;-67
2023/07/06 00:50:07;;;;;;;4.90;4.70;;;17.40;99.90;;;;;;5014319;28;20181;-66
2023/07/06 00:52:34;;;;;;;5.00;4.80;;;17.30;99.90;;;;;;5013097;28;20219;-66
2023/07/06 00:55:03;;;;;;;5.18;4.97;;;17.20;99.90;;;;;;5014825;28;20287;-66
2023/07/06 00:57:32;;;;;;;5.25;5.05;;;17.20;99.90;;;;;;5015012;28;20674;-68
2023/07/06 00:59:59;;;;;;;4.88;4.70;;;17.20;99.90;;;;;;5014912;28;20240;-68
2023/07/06 01:02:28;;;;;;;5.22;5.03;;;17.20;99.90;;;;;;5014911;28;20205;-64
2023/07/06 01:04:55;;;;;;;5.45;5.25;;;17.10;99.90;;;;;;5016338;28;20225;-66
2023/07/06 01:07:26;;;;;;;5.32;5.13;;;17.10;99.90;;;;;;5016209;28;20251;-67
2023/07/06 01:09:53;;;;;;;5.53;5.15;;;17.10;99.90;;;;;;5016163;28;20219;-69
2023/07/06 01:12:24;;;;;;;5.13;4.93;;;17.10;99.90;;;;;;5017666;28;20208;-67
2023/07/06 01:14:52;;;;;;;5.10;4.90;;;17.10;99.90;;;;;;5019268;28;20213;-68
2023/07/06 01:17:25;;;;;;;5.30;5.10;;;17.10;99.90;;;;;;5040531;22;20822;-66
2023/07/06 01:20:02;;;;;;;5.05;4.85;;;17.10;99.90;;;;;;5007214;28;20205;-64
2023/07/06 01:22:51;;;;;;;5.07;4.88;;;17.10;99.90;;;;;;5016744;28;20205;-65
2023/07/06 01:25:28;;;;;;;5.00;4.80;;;17.00;99.90;;;;;;5016698;28;20740;-65
2023/07/06 01:28:13;;;;;;;5.03;4.82;;;17.00;99.90;;;;;;5012849;28;20303;-65
2023/07/06 01:31:15;;;;;;;5.60;5.40;;;16.90;99.90;;;;;;5012345;28;20769;-65
2023/07/06 01:33:48;;;;;;;6.10;5.90;;;16.80;99.90;;;;;;5009182;28;20292;-64
2023/07/06 01:36:27;;;;;;;6.15;5.95;;;16.70;99.90;;;;;;5012337;28;20233;-67
2023/07/06 01:39:13;;;;;;;6.18;5.97;;;16.70;99.90;;;;;;5012727;28;20204;-65
2023/07/06 01:41:40;;;;;;;6.18;5.97;;;16.70;99.90;;;;;;5013420;28;20208;-64
2023/07/06 01:44:10;;;;;;;5.40;5.20;;;16.80;99.90;;;;;;5012985;28;20213;-67
2023/07/06 01:46:37;;;;;;;5.53;5.32;;;16.60;99.90;;;;;;5013292;28;20237;-66
2023/07/06 01:49:05;;;;;;;5.88;5.68;;;16.50;99.90;;;;;;5015325;28;20671;-66
2023/07/06 01:51:48;;;;;;;5.43;5.22;;;16.50;99.90;;;;;;5021165;28;20279;-65
2023/07/06 01:54:19;;;;;;;5.18;4.97;;;16.40;99.90;;;;;;5032779;28;20204;-65
2023/07/06 01:56:52;;;;;;;5.30;5.10;;;16.50;99.90;;;;;;5023256;28;20283;-63
2023/07/06 01:59:22;;;;;;;5.07;4.88;;;16.30;99.90;;;;;;5017764;28;20228;-64
2023/07/06 02:02:00;;;;;;;5.05;4.85;;;16.30;99.90;;;;;;5012259;28;20301;-65
2023/07/06 02:04:30;;;;;;;4.93;4.72;;;16.20;99.90;;;;;;5011892;28;20504;-66
2023/07/06 02:07:00;;;;;;;5.25;5.05;;;16.20;99.90;;;;;;5012099;28;20699;-64
2023/07/06 02:09:27;;;;;;;5.15;4.95;;;16.10;99.90;;;;;;5011478;28;20299;-65
2023/07/06 02:11:54;;;;;;;5.28;5.07;;;16.10;99.90;;;;;;5012144;28;20237;-66
2023/07/06 02:14:21;;;;;;;5.25;5.05;;;16.00;99.90;;;;;;5011913;28;20800;-67
2023/07/06 02:16:50;;;;;;;4.93;4.70;;;16.00;99.90;;;;;;5011492;28;20249;-66
2023/07/06 02:19:20;;;;;;;4.88;4.68;;;15.90;99.90;;;;;;5010280;28;20582;-64
2023/07/06 02:21:50;;;;;;;5.15;4.95;;;15.80;99.90;;;;;;5013420;28;20251;-65
2023/07/06 02:24:18;;;;;;;4.70;4.60;;;15.80;99.90;;;;;;5012672;28;20659;-67
2023/07/06 02:26:45;;;;;;;4.90;4.70;;;15.80;99.90;;;;;;5012108;28;20225;-66
2023/07/06 02:29:14;;;;;;;4.75;4.55;;;15.80;99.90;;;;;;5011321;28;20296;-67
2023/07/06 02:31:41;;;;;;;4.40;4.30;;;15.70;99.90;;;;;;5015111;28;20300;-65
2023/07/06 02:34:08;;;;;;;4.53;4.43;;;15.70;99.90;;;;;;5012143;28;20244;-68
2023/07/06 02:36:37;;;;;;;4.50;4.40;;;15.60;99.90;;;;;;5011727;28;20723;-66
2023/07/06 02:39:05;;;;;;;4.80;4.60;;;15.60;99.90;;;;;;5011198;28;20208;-66
2023/07/06 02:41:33;;;;;;;4.50;4.40;;;15.50;99.90;;;;;;5011337;28;20215;-66
2023/07/06 02:43:59;;;;;;;4.68;4.47;;;15.60;99.90;;;;;;5014089;28;20205;-68
2023/07/06 02:46:27;;;;;;;4.80;4.60;;;15.50;99.90;;;;;;5015123;28;20327;-65
2023/07/06 02:48:54;;;;;;;4.90;4.70;;;15.50;99.90;;;;;;5012622;28;20205;-68
2023/07/06 02:51:22;;;;;;;4.80;4.60;;;15.50;99.90;;;;;;5011002;28;20561;-67
2023/07/06 02:53:49;;;;;;;4.38;4.28;;;15.40;99.90;;;;;;5016757;28;20221;-66
2023/07/06 02:56:17;;;;;;;5.00;4.80;;;15.40;99.90;;;;;;5015187;28;20233;-66
2023/07/06 02:58:44;;;;;;;4.78;4.60;;;15.20;99.90;;;;;;5012939;28;20205;-64
2023/07/06 03:01:12;;;;;;;4.70;4.60;;;15.20;99.90;;;;;;5012423;28;20318;-64
2023/07/06 03:03:39;;;;;;;4.90;4.80;;;15.20;99.90;;;;;;5012404;28;20352;-64
2023/07/06 03:06:05;;;;;;;4.88;4.47;;;15.20;99.90;;;;;;5012637;28;20344;-66
2023/07/06 03:08:32;;;;;;;4.65;4.45;;;15.20;99.90;;;;;;5014773;28;20209;-66
2023/07/06 03:10:59;;;;;;;4.88;4.60;;;15.20;99.90;;;;;;5011918;28;20209;-66
2023/07/06 03:13:28;;;;;;;4.85;4.65;;;15.10;99.90;;;;;;5011122;28;20209;-65
2023/07/06 03:15:58;;;;;;;5.15;4.95;;;15.10;99.90;;;;;;5011007;28;20233;-66
2023/07/06 03:18:25;;;;;;;5.22;5.03;;;15.00;99.90;;;;;;5010597;28;20225;-67
2023/07/06 03:20:53;;;;;;;5.10;4.90;;;14.90;99.90;;;;;;5010391;28;20304;-67
2023/07/06 03:23:21;;;;;;;5.40;5.20;;;14.90;99.90;;;;;;5012057;28;20210;-66
2023/07/06 03:25:51;;;;;;;5.55;5.32;;;14.90;99.90;;;;;;5011964;28;20232;-66
2023/07/06 03:28:18;;;;;;;5.20;5.00;;;14.80;99.90;;;;;;5010887;28;20220;-66
2023/07/06 03:30:46;;;;;;;5.30;5.10;;;14.80;99.90;;;;;;5009929;28;20211;-66
2023/07/06 03:33:13;;;;;;;5.90;5.70;;;14.80;99.90;;;;;;5011538;28;20616;-66
2023/07/06 03:35:41;;;;;;;5.60;5.40;;;14.80;99.90;;;;;;5010833;28;20225;-65
2023/07/06 03:38:08;;;;;;;5.65;5.45;;;14.70;99.90;;;;;;5010650;28;20225;-67
2023/07/06 03:40:35;;;;;;;5.97;5.78;;;14.70;99.90;;;;;;5010467;28;20686;-66
2023/07/06 03:43:03;;;;;;;5.80;5.60;;;14.60;99.90;;;;;;5012940;28;20313;-69
2023/07/06 03:45:31;;;;;;;5.90;5.70;;;14.60;99.90;;;;;;5017628;28;20209;-66
2023/07/06 03:48:00;;;;;;;5.97;5.78;;;14.50;99.90;;;;;;5015687;28;20235;-67
2023/07/06 03:50:27;;;;;;;5.38;5.18;;;14.50;99.90;;;;;;5013012;28;20300;-66
2023/07/06 03:52:54;;;;;;;5.22;5.03;;;14.40;99.90;;;;;;5013245;28;20225;-66
2023/07/06 03:55:24;;;;;;;5.07;4.88;;;14.40;99.90;;;;;;5012339;28;20213;-66
2023/07/06 03:57:51;;;;;;;5.13;4.93;;;14.40;99.90;;;;;;5011840;28;20237;-66
2023/07/06 04:00:22;;;;;;;5.20;5.00;;;14.30;99.90;;;;;;5010565;28;20213;-66
2023/07/06 04:02:49;;;;;;;5.30;5.10;;;14.40;99.90;;;;;;5011280;28;20714;-65
2023/07/06 04:05:19;;;;;;;5.40;5.20;;;14.50;99.90;;;;;;5012185;28;20211;-59
2023/07/06 04:07:52;;;;;;;6.30;6.10;;;14.90;99.90;;;;;;5011678;28;20209;-60
2023/07/06 04:10:20;;;;;;;5.80;5.60;;;15.90;99.90;;;;;;5010225;28;20267;-59
2023/07/06 04:12:48;;;;;;;6.10;5.90;;;16.50;99.90;;;;;;5010888;28;20213;-60
2023/07/06 04:15:17;;;;;;;5.85;5.65;;;16.80;99.90;;;;;;5010301;28;20227;-60
2023/07/06 04:17:44;;;;;;;6.07;5.88;;;17.30;99.90;;;;;;5009669;28;20232;-58
2023/07/06 04:20:19;;;;;;;7.15;6.95;;;17.60;99.90;;;;;;5008833;28;20201;-58
2023/07/06 04:22:46;;;;;;;6.40;6.10;;;17.90;99.90;;;;;;5005184;28;20675;-59
2023/07/06 04:25:18;;;;;;;6.00;5.80;;;18.00;99.90;;;;;;5009043;28;20299;-59
2023/07/06 04:27:45;;;;;;;6.13;5.93;;;18.10;99.90;;;;;;5009677;28;20208;-61
2023/07/06 04:30:13;;;;;;;6.43;6.22;;;18.30;99.90;;;;;;5009229;28;20211;-61
2023/07/06 04:32:41;;;;;;;6.00;5.80;;;18.00;99.90;;;;;;5006870;28;20201;-60
2023/07/06 04:35:12;;;;;;;6.00;5.80;;;18.00;99.90;;;;;;5009756;28;20205;-59
2023/07/06 04:37:41;;;;;;;5.97;5.78;;;18.30;99.90;;;;;;5010375;28;20287;-60
2023/07/06 04:40:11;;;;;;;5.80;5.60;;;18.30;99.90;;;;;;5009080;28;20691;-61
2023/07/06 04:42:39;;;;;;;5.87;5.67;;;18.40;99.90;;;;;;4999665;28;20645;-60
2023/07/06 04:45:08;;;;;;;5.80;5.60;;;18.30;99.90;;;;;;4988647;28;20210;-61
2023/07/06 04:47:35;;;;;;;6.00;5.80;;;18.20;99.90;;;;;;4991179;28;20284;-62
2023/07/06 04:50:04;;;;;;;5.90;5.60;;;18.20;99.90;;;;;;4990488;28;20224;-59
2023/07/06 04:52:31;;;;;;;5.50;5.30;;;18.20;99.90;;;;;;5003688;28;20212;-60
2023/07/06 04:54:59;;;;;;;5.70;5.50;;;18.10;99.90;;;;;;5009882;28;20281;-60
2023/07/06 04:57:26;;;;;;;5.30;5.10;;;18.00;99.90;;;;;;5005920;28;20229;-58
2023/07/06 04:59:53;;;;;;;5.57;5.38;;;17.90;99.90;;;;;;5012084;28;20212;-59
2023/07/06 05:02:22;;;;;;;5.60;5.40;;;17.80;99.90;;;;;;5010008;28;20205;-61
2023/07/06 05:04:51;;;;;;;5.50;5.30;;;17.80;99.90;;;;;;4996116;28;20585;-61
2023/07/06 05:07:19;;;;;;;5.65;5.45;;;17.80;99.90;;;;;;5009582;28;20308;-61
2023/07/06 05:09:49;;;;;;;4.10;4.00;;;17.90;99.90;;;;;;5010087;28;20308;-60
2023/07/06 05:12:17;;;;;;;3.85;3.72;;;17.90;99.90;;;;;;5004593;28;20209;-60
2023/07/06 05:14:44;;;;;;;3.92;3.83;;;17.90;99.90;;;;;;5000316;28;20197;-61
2023/07/06 05:17:10;;;;;;;3.80;3.70;;;18.00;99.90;;;;;;5004231;28;20235;-61
2023/07/06 05:19:37;;;;;;;4.00;3.90;;;18.20;99.90;;;;;;4999766;28;20213;-60
2023/07/06 05:22:05;;;;;;;4.03;3.83;;;18.40;99.90;;;;;;5001848;28;20743;-59
2023/07/06 05:24:31;;;;;;;4.05;3.95;;;18.70;99.90;;;;;;5007355;28;20205;-61
2023/07/06 05:26:58;;;;;;;4.22;4.05;;;18.70;99.90;;;;;;5006545;28;20232;-60
2023/07/06 05:29:26;;;;;;;4.20;4.07;;;18.80;99.90;;;;;;5008871;28;20651;-59
2023/07/06 05:31:53;;;;;;;4.10;4.00;;;19.00;99.90;;;;;;4992861;28;20236;-60
2023/07/06 05:34:20;;;;;;;4.40;4.30;;;19.10;99.90;;;;;;4990645;28;20206;-59
2023/07/06 05:36:47;;;;;;;4.32;4.22;;;19.20;99.90;;;;;;4990385;28;20298;-59
2023/07/06 05:39:14;;;;;;;4.53;4.32;;;19.10;99.90;;;;;;4989879;28;20317;-60
2023/07/06 05:41:40;;;;;;;4.30;4.20;;;19.30;99.90;;;;;;5001637;28;20221;-60
2023/07/06 05:44:08;;;;;;;4.50;4.30;;;19.20;99.90;;;;;;5007668;28;20670;-61
2023/07/06 05:46:36;;;;;;;4.50;4.30;;;19.20;99.90;;;;;;5002609;28;20228;-61
2023/07/06 05:49:03;;;;;;;7.15;6.72;;;19.30;99.90;;;;;;5001982;28;20667;-67
2023/07/06 05:51:30;;;;;;;3.78;3.67;;;19.50;99.90;;;;;;5017731;28;20205;-66
2023/07/06 05:53:58;;;;;;;3.75;3.65;;;19.30;99.90;;;;;;5017744;28;20208;-66
2023/07/06 05:56:25;;;;;;;4.07;3.88;;;19.10;99.90;;;;;;5032086;28;20225;-67
2023/07/06 05:58:52;;;;;;;3.75;3.65;;;19.10;99.90;;;;;;5032355;28;20780;-68
2023/07/06 06:01:20;;;;;;;4.07;3.97;;;19.00;99.90;;;;;;5032901;28;20192;-67
2023/07/06 06:03:48;;;;;;;4.10;4.00;;;19.10;99.90;;;;;;5034481;28;20893;-65
2023/07/06 06:06:15;;;;;;;4.15;4.00;;;19.20;99.90;;;;;;5034069;28;20655;-66
2023/07/06 06:08:42;;;;;;;4.53;4.32;;;19.30;99.90;;;;;;5033268;28;20288;-68
2023/07/06 06:11:10;;;;;;;4.40;4.20;;;19.20;99.90;;;;;;5032838;28;20240;-64
2023/07/06 06:13:37;;;;;;;3.90;3.80;;;19.10;99.90;;;;;;5033242;28;20789;-66
2023/07/06 06:16:04;;;;;;;3.85;3.75;;;19.00;99.90;;;;;;5035208;28;20315;-66
2023/07/06 06:18:31;;;;;;;3.80;3.70;;;19.10;99.90;;;;;;5037979;28;20228;-67
2023/07/06 06:20:59;;;;;;;4.05;3.95;;;19.20;99.90;;;;;;5037856;28;20251;-66
2023/07/06 06:23:26;;;;;;;4.05;3.85;;;19.20;99.90;;;;;;5035966;28;20291;-66
2023/07/06 06:25:52;;;;;;;4.10;4.00;;;19.40;99.90;;;;;;5035037;28;20347;-65
2023/07/06 06:28:20;;;;;;;4.13;4.03;;;19.40;99.90;;;;;;5035452;28;20205;-66
2023/07/06 06:30:47;;;;;;;4.13;4.03;;;19.40;99.90;;;;;;5038694;28;20299;-68
2023/07/06 06:33:13;;;;;;;4.30;4.10;;;19.40;99.90;;;;;;5047298;28;20219;-67
2023/07/06 06:35:40;;;;;;;4.85;4.65;;;19.60;99.90;;;;;;5045357;28;20252;-68
2023/07/06 06:38:08;;;;;;;4.40;4.30;;;19.80;99.90;;;;;;5047455;28;20267;-68
2023/07/06 06:40:36;;;;;;;4.57;4.38;;;20.10;99.90;;;;;;5037984;28;20215;-68
2023/07/06 06:43:03;;;;;;;4.95;4.78;;;20.40;99.90;;;;;;5033464;28;20295;-67
2023/07/06 06:45:31;;;;;;;4.75;4.65;;;20.50;99.90;;;;;;5033426;28;20250;-67
2023/07/06 06:47:58;;;;;;;5.18;4.97;;;20.60;99.90;;;;;;5033335;28;20636;-66
2023/07/06 06:50:28;;;;;;;5.35;5.15;;;20.70;99.90;;;;;;5033116;28;20204;-68
2023/07/06 06:52:55;;;;;;;5.05;4.85;;;21.00;99.90;;;;;;5032142;28;20208;-65
2023/07/06 06:55:23;;;;;;;4.80;4.60;;;21.10;99.90;;;;;;5035267;28;20205;-67
2023/07/06 06:57:50;;;;;;;4.47;4.38;;;21.20;99.90;;;;;;5040207;28;20247;-68
2023/07/06 07:00:18;;;;;;;4.72;4.53;;;21.20;99.90;;;;;;5043334;28;20299;-67
2023/07/06 07:02:44;;;;;;;4.50;4.40;;;21.10;99.90;;;;;;5043044;28;20209;-67
2023/07/06 07:05:15;;;;;;;4.75;4.63;;;21.20;99.90;;;;;;5043042;28;20211;-68
2023/07/06 07:07:42;;;;;;;4.43;4.30;;;21.40;99.90;;;;;;5039296;28;20289;-69
2023/07/06 07:10:10;;;;;;;4.22;4.13;;;21.20;99.90;;;;;;5034422;28;20207;-66
2023/07/06 07:12:39;;;;;;;4.60;4.40;;;21.30;99.90;;;;;;5034253;28;20287;-65
2023/07/06 07:15:09;;;;;;;4.50;4.40;;;21.30;99.90;;;;;;5033514;28;20776;-68
2023/07/06 07:17:37;;;;;;;4.50;4.35;;;21.30;99.90;;;;;;5030349;22;20237;-67
2023/07/06 07:20:05;;;;;;;4.70;4.50;;;21.40;99.90;;;;;;5012399;28;20299;-64
2023/07/06 07:22:32;;;;;;;4.78;4.57;;;21.40;99.90;;;;;;5013377;28;20213;-65
2023/07/06 07:25:00;;;;;;;4.57;4.38;;;21.40;99.90;;;;;;5013370;28;20238;-65
2023/07/06 07:27:28;;;;;;;4.75;4.55;;;21.40;99.90;;;;;;5013061;28;20229;-65
2023/07/06 07:29:58;;;;;;;4.50;4.40;;;21.40;99.90;;;;;;5011900;28;20750;-64
2023/07/06 07:32:25;;;;;;;4.78;4.57;;;21.60;99.90;;;;;;5011858;28;20209;-66
2023/07/06 07:34:52;;;;;;;4.78;4.57;;;21.80;99.90;;;;;;5012884;28;20312;-65
2023/07/06 07:37:19;;;;;;;4.90;4.70;;;21.80;99.90;;;;;;5014819;28;20232;-66
2023/07/06 07:39:47;;;;;;;4.80;4.63;;;21.70;99.90;;;;;;5014417;28;20229;-65
2023/07/06 07:42:14;;;;;;;5.20;5.00;;;21.80;99.90;;;;;;5013891;28;20212;-66
2023/07/06 07:44:44;;;;;;;5.22;5.03;;;21.80;99.90;;;;;;5010814;28;20224;-65
2023/07/06 07:47:12;;;;;;;5.28;5.07;;;21.90;99.90;;;;;;5021889;28;20237;-66
2023/07/06 07:49:39;;;;;;;5.28;5.07;;;22.00;99.90;;;;;;5013492;28;20285;-65
2023/07/06 07:52:12;;;;;;;5.28;5.07;;;22.10;99.90;;;;;;5011489;28;20312;-66
2023/07/06 07:54:39;;;;;;;5.30;5.10;;;22.00;99.90;;;;;;5011551;28;20297;-65
2023/07/06 07:57:07;;;;;;;5.50;5.30;;;21.80;99.90;;;;;;5011314;28;20283;-66
2023/07/06 07:59:34;;;;;;;5.50;5.30;;;21.80;99.90;;;;;;5010949;28;20292;-66
2023/07/06 08:02:01;;;;;;;5.43;5.22;;;22.00;99.90;;;;;;5011687;28;20687;-66
2023/07/06 08:04:30;;;;;;;5.35;5.15;;;22.20;99.90;;;;;;5011085;28;20223;-66
2023/07/06 08:06:56;;;;;;;5.30;5.10;;;22.40;99.90;;;;;;5012023;28;20325;-65
2023/07/06 08:09:23;;;;;;;5.20;5.00;;;22.50;99.90;;;;;;5010868;28;20574;-68
2023/07/06 08:11:50;;;;;;;5.93;5.63;;;22.60;99.90;;;;;;5028964;28;20204;-65
2023/07/06 08:14:34;;;;;;;5.32;5.13;;;22.50;99.90;;;;;;5026516;28;20648;-65
2023/07/06 08:17:00;;;;;;;5.30;5.10;;;22.60;99.90;;;;;;5013429;28;20237;-67
2023/07/06 08:19:29;;;;;;;5.45;5.22;;;22.50;99.90;;;;;;5011929;28;20251;-66
2023/07/06 08:21:56;;;;;;;5.00;4.80;;;22.60;99.90;;;;;;5012510;28;20637;-65
2023/07/06 08:24:22;;;;;;;4.82;4.70;;;22.70;99.90;;;;;;5013536;28;20216;-64
2023/07/06 08:26:49;;;;;;;5.20;5.00;;;22.70;99.90;;;;;;5012982;28;20225;-66
2023/07/06 08:29:17;;;;;;;5.35;5.15;;;22.70;99.90;;;;;;5011734;28;20205;-67
2023/07/06 08:31:45;;;;;;;5.10;4.90;;;22.80;99.90;;;;;;5012350;28;20671;-65
2023/07/06 08:34:12;;;;;;;5.10;4.90;;;22.90;99.90;;;;;;5013528;28;20213;-66
2023/07/06 08:36:40;;;;;;;5.05;4.85;;;22.90;99.90;;;;;;5012647;28;20235;-65
2023/07/06 08:39:08;;;;;;;4.60;4.50;;;22.90;99.90;;;;;;5010507;28;20229;-65
2023/07/06 08:41:39;;;;;;;5.00;4.80;;;22.90;99.90;;;;;;5013861;28;20297;-65
2023/07/06 08:44:11;;;;;;;4.97;4.78;;;22.80;99.90;;;;;;5012929;28;20208;-65
2023/07/06 08:46:47;;;;;;;4.70;4.60;;;22.90;99.90;;;;;;5011163;28;20833;-65
2023/07/06 08:49:31;;;;;;;5.15;4.95;;;23.10;99.90;;;;;;5011395;28;20201;-65
2023/07/06 08:52:03;;;;;;;4.75;4.55;;;23.10;99.90;;;;;;5027159;28;20212;-67
2023/07/06 08:54:31;;;;;;;4.80;4.60;;;23.30;99.90;;;;;;5031924;28;20315;-66
2023/07/06 08:56:58;;;;;;;4.68;4.53;;;23.50;99.90;;;;;;5032784;28;20240;-66
2023/07/06 08:59:36;;;;;;;4.65;4.55;;;23.50;99.90;;;;;;5030430;28;20224;-65
2023/07/06 09:02:16;;;;;;;5.05;4.85;;;23.60;99.90;;;;;;5031303;28;20215;-66
2023/07/06 09:04:43;;;;;;;4.70;4.60;;;23.70;99.90;;;;;;5031698;28;20209;-66
2023/07/06 09:07:13;;;;;;;4.80;4.60;;;23.60;99.90;;;;;;5032785;28;20250;-65
2023/07/06 09:09:41;;;;;;;4.57;4.38;;;23.70;99.90;;;;;;5031702;28;20200;-67
2023/07/06 09:12:14;;;;;;;4.53;4.43;;;23.80;99.90;;;;;;5030945;28;20209;-65
2023/07/06 09:14:42;;;;;;;4.47;4.38;;;23.80;99.90;;;;;;5030875;28;20315;-67
2023/07/06 09:17:17;;;;;;;4.35;4.25;;;23.80;99.90;;;;;;5034241;28;20275;-66
2023/07/06 09:19:45;;;;;;;4.80;4.60;;;23.80;99.90;;;;;;5033421;28;20592;-67
2023/07/06 09:22:13;;;;;;;4.90;4.65;;;24.00;99.90;;;;;;5034145;28;20209;-66
2023/07/06 09:24:45;;;;;;;4.90;4.70;;;24.10;99.90;;;;;;5037949;28;20245;-66
2023/07/06 09:27:18;;;;;;;4.80;4.60;;;24.10;99.90;;;;;;5033875;28;20316;-65
2023/07/06 09:29:55;;;;;;;4.30;4.20;;;24.10;99.90;;;;;;5014722;28;20201;-66
2023/07/06 09:32:23;;;;;;;4.32;4.22;;;24.30;99.90;;;;;;5024225;28;20192;-66
2023/07/06 09:34:51;;;;;;;4.40;4.28;;;24.60;99.90;;;;;;5015014;28;20216;-65
2023/07/06 09:37:20;;;;;;;4.30;4.20;;;24.80;99.90;;;;;;5017803;28;20221;-66
2023/07/06 09:39:58;;;;;;;4.40;4.20;;;24.90;99.90;;;;;;5018753;28;20256;-67
2023/07/06 09:42:28;;;;;;;4.32;4.20;;;25.00;99.90;;;;;;5015567;28;20236;-65
2023/07/06 09:44:55;;;;;;;4.80;4.60;;;25.20;99.90;;;;;;5014993;28;20220;-66
2023/07/06 09:47:23;;;;;;;4.43;4.30;;;24.90;99.90;;;;;;5021071;28;20239;-65
2023/07/06 09:49:55;;;;;;;4.30;4.20;;;24.60;99.90;;;;;;5024957;28;20265;-67
2023/07/06 09:52:24;;;;;;;4.47;4.38;;;24.60;99.90;;;;;;5016157;28;20209;-66
2023/07/06 09:54:57;;;;;;;4.70;4.50;;;24.80;99.90;;;;;;5015005;28;20619;-65
2023/07/06 09:57:26;;;;;;;4.50;4.30;;;25.00;99.90;;;;;;5014911;28;20232;-66
2023/07/06 09:59:54;;;;;;;4.65;4.55;;;25.20;99.90;;;;;;5013251;28;20736;-67
2023/07/06 10:02:29;;;;;;;4.70;4.50;;;25.10;99.90;;;;;;5014859;28;20201;-67
2023/07/06 10:05:02;;;;;;;4.57;4.38;;;24.90;99.90;;;;;;5014587;28;20209;-67
2023/07/06 10:07:44;;;;;;;4.82;4.63;;;24.80;99.90;;;;;;5015327;28;20232;-68
2023/07/06 10:10:23;;;;;;;4.60;4.50;;;25.20;99.90;;;;;;5014385;28;20292;-66
2023/07/06 10:12:58;;;;;;;4.68;4.47;;;25.50;99.90;;;;;;5014447;28;20213;-66
2023/07/06 10:15:33;;;;;;;4.85;4.65;;;25.80;99.90;;;;;;5014755;28;20209;-67
2023/07/06 10:18:09;;;;;;;5.00;4.80;;;26.00;99.90;;;;;;5014251;28;20318;-66
2023/07/06 10:20:43;;;;;;;4.75;4.65;;;26.30;99.90;;;;;;5013795;28;20271;-67
2023/07/06 10:23:29;;;;;;;5.18;4.97;;;26.60;99.90;;;;;;5014447;28;20686;-67
2023/07/06 10:26:04;;;;;;;5.30;5.00;;;26.80;99.90;;;;;;5015938;28;20204;-66
2023/07/06 10:28:38;;;;;;;5.60;5.40;;;26.80;99.90;;;;;;5015716;28;20309;-67
2023/07/06 10:31:07;;;;;;;5.38;5.18;;;26.80;99.90;;;;;;5013257;28;20610;-67
2023/07/06 10:33:41;;;;;;;5.57;5.38;;;26.80;99.90;;;;;;5013776;28;20287;-66
2023/07/06 10:36:12;;;;;;;6.10;5.90;;;26.80;99.90;;;;;;5013703;28;20225;-65
2023/07/06 10:38:40;;;;;;;6.07;5.88;;;26.50;99.90;;;;;;5017650;28;20629;-65
2023/07/06 10:41:25;;;;;;;5.95;5.75;;;26.20;99.90;;;;;;5015378;28;20209;-67
2023/07/06 10:43:55;;;;;;;6.10;5.90;;;26.20;99.90;;;;;;5013905;28;20251;-67
2023/07/06 10:46:33;;;;;;;6.25;6.00;;;26.40;99.90;;;;;;5029735;28;20696;-66
2023/07/06 10:49:16;;;;;;;6.32;6.13;;;26.80;99.90;;;;;;5030651;28;20262;-67
2023/07/06 10:51:50;;;;;;;6.03;5.82;;;27.00;99.60;;;;;;5030074;28;20214;-67
2023/07/06 10:54:23;;;;;;;6.35;6.13;;;26.90;99.90;;;;;;5030639;28;20209;-66
2023/07/06 10:57:00;;;;;;;6.30;6.10;;;27.00;99.90;;;;;;5020677;28;21036;-67
2023/07/06 10:59:36;;;;;;;6.35;6.15;;;27.10;99.90;;;;;;5009421;28;20221;-67
2023/07/06 11:02:16;;;;;;;6.50;6.30;;;26.90;98.80;;;;;;5009913;28;20220;-66
2023/07/06 11:04:55;;;;;;;6.40;6.20;;;27.00;99.30;;;;;;5009987;28;20211;-66
2023/07/06 11:07:46;;;;;;;6.10;5.90;;;27.20;99.00;;;;;;5011240;28;20296;-66
2023/07/06 11:10:31;;;;;;;6.15;5.95;;;27.30;99.00;;;;;;5012495;28;20585;-69
2023/07/06 11:13:16;;;;;;;6.82;6.63;;;27.00;98.70;;;;;;5010566;28;20663;-66
2023/07/06 11:15:59;;;;;;;6.38;6.18;;;27.20;99.70;;;;;;4994367;28;20682;-68
2023/07/06 11:18:33;;;;;;;5.80;5.60;;;27.00;98.20;;;;;;4995125;28;20221;-67
2023/07/06 11:21:09;;;;;;;6.28;6.07;;;26.70;98.00;;;;;;5002336;28;20763;-65
2023/07/06 11:23:41;;;;;;;6.20;6.00;;;26.60;97.70;;;;;;5011620;28;20189;-68
2023/07/06 11:26:28;;;;;;;5.85;5.65;;;26.80;96.90;;;;;;4997802;28;20233;-67
2023/07/06 11:28:55;;;;;;;6.40;6.20;;;27.20;97.20;;;;;;4999674;28;20210;-69
2023/07/06 11:31:35;;;;;;;6.45;6.15;;;27.20;95.50;;;;;;4994256;28;20221;-66
2023/07/06 11:34:11;;;;;;;6.13;5.93;;;27.00;95.80;;;;;;4998288;28;20200;-67
2023/07/06 11:36:44;;;;;;;6.22;6.03;;;27.20;96.40;;;;;;5013511;28;20236;-66
2023/07/06 11:39:19;;;;;;;6.70;6.50;;;27.50;96.40;;;;;;5011568;28;20225;-67
2023/07/06 11:41:53;;;;;;;6.10;5.90;;;27.50;95.80;;;;;;5011539;28;20212;-66
2023/07/06 11:44:29;;;;;;;6.40;6.20;;;27.40;95.90;;;;;;5013910;28;20206;-67
2023/07/06 11:47:21;;;;;;;6.45;6.15;;;27.40;96.70;;;;;;5012463;28;20308;-67
2023/07/06 11:49:51;;;;;;;6.00;5.80;;;27.50;95.80;;;;;;5010913;28;20247;-67
2023/07/06 11:52:21;;;;;;;6.20;6.00;;;27.40;95.90;;;;;;5011547;28;20205;-66
2023/07/06 11:55:04;;;;;;;6.30;6.10;;;27.40;94.40;;;;;;5011447;28;20209;-67
2023/07/06 11:57:43;;;;;;;6.10;5.90;;;27.50;95.20;;;;;;5011578;28;20221;-66
2023/07/06 12:00:33;;;;;;;6.50;6.30;;;27.80;95.00;;;;;;5010570;28;20240;-67
2023/07/06 12:03:01;;;;;;;6.70;6.50;;;27.70;95.20;;;;;;5011912;28;20211;-67
2023/07/06 12:05:31;;;;;;;6.82;6.43;;;27.80;96.10;;;;;;5011127;28;20703;-66
2023/07/06 12:08:00;;;;;;;6.90;6.65;;;27.70;95.60;;;;;;5011362;28;20303;-66
2023/07/06 12:10:29;;;;;;;6.57;6.38;;;27.70;95.80;;;;;;5008871;28;20240;-66
2023/07/06 12:12:58;;;;;;;6.40;6.20;;;27.60;96.60;;;;;;5018999;28;20208;-65
2023/07/06 12:15:25;;;;;;;6.50;6.30;;;27.60;95.80;;;;;;5033472;28;20307;-67
2023/07/06 12:17:55;;;;;;;6.55;6.35;;;27.30;95.40;;;;;;5031697;28;20323;-67
2023/07/06 12:20:25;;;;;;;6.38;6.18;;;27.40;96.20;;;;;;5030408;28;20313;-66
2023/07/06 12:22:53;;;;;;;6.35;6.15;;;27.60;95.30;;;;;;5030501;28;20228;-67
2023/07/06 12:25:21;;;;;;;6.40;6.20;;;27.60;95.70;;;;;;5030766;28;20774;-65
2023/07/06 12:27:48;;;;;;;6.07;5.88;;;27.60;94.40;;;;;;5030544;28;20227;-66
2023/07/06 12:30:17;;;;;;;6.32;6.13;;;27.50;94.40;;;;;;5030757;28;20205;-66
2023/07/06 12:32:46;;;;;;;6.70;6.50;;;27.60;94.70;;;;;;5030935;28;20232;-66
2023/07/06 12:35:13;;;;;;;6.28;6.07;;;27.70;94.00;;;;;;5031469;28;20212;-67
2023/07/06 12:37:42;;;;;;;7.50;7.20;;;27.60;94.10;;;;;;5032063;28;20601;-65
2023/07/06 12:40:19;;;;;;;6.28;6.07;;;27.70;94.60;;;;;;5030184;28;20224;-65
2023/07/06 12:42:46;;;;;;;6.47;6.28;;;27.80;94.60;;;;;;5031832;28;20208;-66
2023/07/06 12:45:18;;;;;;;6.78;6.57;;;28.00;94.80;;;;;;5030295;28;20270;-66
2023/07/06 12:47:45;;;;;;;6.40;6.20;;;28.00;94.30;;;;;;5011563;28;20225;-66
2023/07/06 12:50:16;;;;;;;6.70;6.50;;;28.00;94.20;;;;;;5013336;28;20294;-67
2023/07/06 12:52:45;;;;;;;6.43;6.22;;;27.70;92.90;;;;;;5015172;28;20204;-66
2023/07/06 12:55:16;;;;;;;6.40;6.20;;;27.50;93.90;;;;;;5022040;28;20216;-65
2023/07/06 12:57:44;;;;;;;6.57;6.38;;;27.60;94.30;;;;;;5026489;28;20765;-66
2023/07/06 13:00:22;;;;;;;6.80;6.60;;;27.60;93.70;;;;;;5015263;28;20228;-66
2023/07/06 13:02:56;;;;;;;6.40;6.20;;;27.50;93.70;;;;;;5015181;28;20209;-66